sensor_id;sensor_type;location;lat;lon;timestamp;pressure;altitude;pressure_sealevel;temperature;humidity
59170;BME280;52474;52.236;5.114;2023-08-20T00:00:26;102073.66;;;17.03;100.00
59170;BME280;52474;52.236;5.114;2023-08-20T00:03:02;102098.16;;;17.18;100.00
59170;BME280;52474;52.236;5.114;2023-08-20T00:05:29;102100.94;;;17.26;100.00
59170;BME280;52474;52.236;5.114;2023-08-20T00:07:55;102115.75;;;17.30;100.00
59170;BME280;52474;52.236;5.114;2023-08-20T00:10:20;102111.34;;;17.29;100.00
59170;BME280;52474;52.236;5.114;2023-08-20T00:12:46;102071.97;;;17.02;100.00
59170;BME280;52474;52.236;5.114;2023-08-20T00:15:12;102099.13;;;17.17;100.00
59170;BME280;52474;52.236;5.114;2023-08-20T00:17:39;102110.84;;;17.16;100.00
59170;BME280;52474;52.236;5.114;2023-08-20T00:20:07;102111.81;;;17.15;100.00
59170;BME280;52474;52.236;5.114;2023-08-20T00:22:41;102093.94;;;17.06;100.00
59170;BME280;52474;52.236;5.114;2023-08-20T00:25:08;102092.53;;;17.02;100.00
59170;BME280;52474;52.236;5.114;2023-08-20T00:27:34;102126.91;;;17.16;100.00
59170;BME280;52474;52.236;5.114;2023-08-20T00:30:00;102130.28;;;17.18;100.00
59170;BME280;52474;52.236;5.114;2023-08-20T00:32:26;102132.25;;;17.26;100.00
59170;BME280;52474;52.236;5.114;2023-08-20T00:34:51;102116.03;;;17.17;100.00
59170;BME280;52474;52.236;5.114;2023-08-20T00:37:17;102138.72;;;17.33;100.00
59170;BME280;52474;52.236;5.114;2023-08-20T00:39:43;102133.63;;;17.30;100.00
59170;BME280;52474;52.236;5.114;2023-08-20T00:42:08;102125.19;;;17.15;100.00
59170;BME280;52474;52.236;5.114;2023-08-20T00:44:34;102141.13;;;17.16;100.00
59170;BME280;52474;52.236;5.114;2023-08-20T00:47:04;102139.16;;;17.09;100.00
59170;BME280;52474;52.236;5.114;2023-08-20T00:49:31;102126.19;;;17.04;100.00
59170;BME280;52474;52.236;5.114;2023-08-20T00:51:58;102108.31;;;16.95;100.00
59170;BME280;52474;52.236;5.114;2023-08-20T00:54:25;102146.59;;;17.05;100.00
59170;BME280;52474;52.236;5.114;2023-08-20T00:56:51;102144.22;;;17.12;100.00
59170;BME280;52474;52.236;5.114;2023-08-20T00:59:17;102113.66;;;16.95;100.00
59170;BME280;52474;52.236;5.114;2023-08-20T01:01:43;102140.28;;;17.06;100.00
59170;BME280;52474;52.236;5.114;2023-08-20T01:04:09;102126.63;;;16.90;100.00
59170;BME280;52474;52.236;5.114;2023-08-20T01:09:43;102161.81;;;17.14;100.00
59170;BME280;52474;52.236;5.114;2023-08-20T01:12:14;102152.25;;;17.02;100.00
59170;BME280;52474;52.236;5.114;2023-08-20T01:14:40;102158.19;;;16.96;100.00
59170;BME280;52474;52.236;5.114;2023-08-20T01:17:06;102137.19;;;16.82;100.00
59170;BME280;52474;52.236;5.114;2023-08-20T01:19:32;102161.69;;;16.87;100.00
59170;BME280;52474;52.236;5.114;2023-08-20T01:30:23;102177.25;;;16.62;100.00
59170;BME280;52474;52.236;5.114;2023-08-20T01:32:50;102171.47;;;16.57;100.00
59170;BME280;52474;52.236;5.114;2023-08-20T01:35:17;102172.44;;;16.46;100.00
59170;BME280;52474;52.236;5.114;2023-08-20T01:37:43;102168.22;;;16.53;100.00
59170;BME280;52474;52.236;5.114;2023-08-20T01:40:10;102166.25;;;16.46;100.00
59170;BME280;52474;52.236;5.114;2023-08-20T01:42:37;102183.72;;;16.50;100.00
59170;BME280;52474;52.236;5.114;2023-08-20T01:45:04;102197.06;;;16.40;100.00
59170;BME280;52474;52.236;5.114;2023-08-20T01:47:31;102166.09;;;16.38;100.00
59170;BME280;52474;52.236;5.114;2023-08-20T01:49:59;102188.06;;;16.51;100.00
59170;BME280;52474;52.236;5.114;2023-08-20T01:52:25;102169.06;;;16.44;100.00
59170;BME280;52474;52.236;5.114;2023-08-20T01:54:51;102147.91;;;16.31;100.00
59170;BME280;52474;52.236;5.114;2023-08-20T01:57:17;102175.78;;;16.39;100.00
59170;BME280;52474;52.236;5.114;2023-08-20T01:59:43;102167.88;;;16.27;100.00
59170;BME280;52474;52.236;5.114;2023-08-20T02:02:08;102175.59;;;16.21;100.00
59170;BME280;52474;52.236;5.114;2023-08-20T02:04:35;102178.34;;;16.09;100.00
59170;BME280;52474;52.236;5.114;2023-08-20T02:07:00;102187.66;;;16.05;100.00
59170;BME280;52474;52.236;5.114;2023-08-20T02:09:27;102188.22;;;16.09;100.00
59170;BME280;52474;52.236;5.114;2023-08-20T02:11:52;102163.56;;;15.96;100.00
59170;BME280;52474;52.236;5.114;2023-08-20T02:14:18;102176.63;;;15.99;100.00
59170;BME280;52474;52.236;5.114;2023-08-20T02:16:45;102121.25;;;15.70;100.00
59170;BME280;52474;52.236;5.114;2023-08-20T02:19:11;102149.44;;;15.84;100.00
59170;BME280;52474;52.236;5.114;2023-08-20T02:21:37;102166.06;;;15.97;100.00
59170;BME280;52474;52.236;5.114;2023-08-20T02:24:03;102157.16;;;15.87;100.00
59170;BME280;52474;52.236;5.114;2023-08-20T02:26:29;102157.75;;;15.91;100.00
59170;BME280;52474;52.236;5.114;2023-08-20T02:28:54;102158.22;;;15.96;100.00
59170;BME280;52474;52.236;5.114;2023-08-20T02:31:20;102114.19;;;15.69;100.00
59170;BME280;52474;52.236;5.114;2023-08-20T02:33:47;102140.53;;;15.74;100.00
59170;BME280;52474;52.236;5.114;2023-08-20T02:36:12;102128.88;;;15.54;100.00
59170;BME280;52474;52.236;5.114;2023-08-20T02:38:38;102162.91;;;15.61;100.00
59170;BME280;52474;52.236;5.114;2023-08-20T02:41:04;102144.69;;;15.45;100.00
59170;BME280;52474;52.236;5.114;2023-08-20T02:43:29;102157.78;;;15.49;100.00
59170;BME280;52474;52.236;5.114;2023-08-20T02:45:55;102135.19;;;15.32;100.00
59170;BME280;52474;52.236;5.114;2023-08-20T02:48:21;102158.09;;;15.55;100.00
59170;BME280;52474;52.236;5.114;2023-08-20T02:50:46;102168.66;;;15.57;100.00
59170;BME280;52474;52.236;5.114;2023-08-20T02:53:12;102162.53;;;15.45;100.00
59170;BME280;52474;52.236;5.114;2023-08-20T02:55:38;102140.94;;;15.27;100.00
59170;BME280;52474;52.236;5.114;2023-08-20T02:58:04;102153.28;;;15.28;100.00
59170;BME280;52474;52.236;5.114;2023-08-20T03:00:33;102127.78;;;15.14;100.00
59170;BME280;52474;52.236;5.114;2023-08-20T03:02:58;102146.38;;;15.25;100.00
59170;BME280;52474;52.236;5.114;2023-08-20T03:05:24;102145.09;;;15.20;100.00
59170;BME280;52474;52.236;5.114;2023-08-20T03:07:50;102134.88;;;15.04;100.00
59170;BME280;52474;52.236;5.114;2023-08-20T03:10:16;102163.69;;;15.10;100.00
59170;BME280;52474;52.236;5.114;2023-08-20T03:12:42;102139.25;;;14.94;100.00
59170;BME280;52474;52.236;5.114;2023-08-20T03:15:08;102176.31;;;15.08;100.00
59170;BME280;52474;52.236;5.114;2023-08-20T03:17:33;102167.13;;;15.01;100.00
59170;BME280;52474;52.236;5.114;2023-08-20T03:20:00;102181.06;;;15.05;100.00
59170;BME280;52474;52.236;5.114;2023-08-20T03:22:26;102165.44;;;15.00;100.00
59170;BME280;52474;52.236;5.114;2023-08-20T03:24:53;102177.50;;;15.15;100.00
59170;BME280;52474;52.236;5.114;2023-08-20T03:27:19;102195.03;;;15.29;100.00
59170;BME280;52474;52.236;5.114;2023-08-20T03:29:46;102196.72;;;15.30;100.00
59170;BME280;52474;52.236;5.114;2023-08-20T03:32:12;102186.69;;;15.22;100.00
59170;BME280;52474;52.236;5.114;2023-08-20T03:34:38;102200.56;;;15.37;100.00
59170;BME280;52474;52.236;5.114;2023-08-20T03:37:04;102200.56;;;15.37;100.00
59170;BME280;52474;52.236;5.114;2023-08-20T03:39:30;102180.38;;;15.23;100.00
59170;BME280;52474;52.236;5.114;2023-08-20T03:41:59;102200.56;;;15.37;100.00
59170;BME280;52474;52.236;5.114;2023-08-20T03:44:25;102192.44;;;15.39;100.00
59170;BME280;52474;52.236;5.114;2023-08-20T03:46:50;102191.72;;;15.37;100.00
59170;BME280;52474;52.236;5.114;2023-08-20T03:49:16;102194.50;;;15.35;100.00
59170;BME280;52474;52.236;5.114;2023-08-20T03:51:42;102192.22;;;15.31;100.00
59170;BME280;52474;52.236;5.114;2023-08-20T03:54:11;102209.97;;;15.20;100.00
59170;BME280;52474;52.236;5.114;2023-08-20T03:56:36;102220.91;;;15.17;100.00
59170;BME280;52474;52.236;5.114;2023-08-20T03:59:02;102207.38;;;15.09;100.00
59170;BME280;52474;52.236;5.114;2023-08-20T04:01:29;102201.31;;;15.07;100.00
59170;BME280;52474;52.236;5.114;2023-08-20T04:03:55;102191.66;;;14.95;100.00
59170;BME280;52474;52.236;5.114;2023-08-20T04:06:20;102224.34;;;15.08;100.00
59170;BME280;52474;52.236;5.114;2023-08-20T04:08:46;102219.97;;;15.07;100.00
59170;BME280;52474;52.236;5.114;2023-08-20T04:11:11;102208.50;;;14.95;100.00
59170;BME280;52474;52.236;5.114;2023-08-20T04:13:39;102221.47;;;15.00;100.00
59170;BME280;52474;52.236;5.114;2023-08-20T04:16:05;102229.56;;;14.98;100.00
59170;BME280;52474;52.236;5.114;2023-08-20T04:18:32;102210.59;;;14.80;100.00
59170;BME280;52474;52.236;5.114;2023-08-20T04:20:58;102212.28;;;14.81;100.00
59170;BME280;52474;52.236;5.114;2023-08-20T04:23:23;102223.19;;;14.90;100.00
59170;BME280;52474;52.236;5.114;2023-08-20T04:25:50;102232.16;;;14.89;100.00
59170;BME280;52474;52.236;5.114;2023-08-20T04:28:16;102201.56;;;14.72;100.00
59170;BME280;52474;52.236;5.114;2023-08-20T04:30:41;102232.28;;;14.87;100.00
59170;BME280;52474;52.236;5.114;2023-08-20T04:33:07;102232.41;;;14.86;100.00
59170;BME280;52474;52.236;5.114;2023-08-20T04:35:33;102232.94;;;14.79;100.00
59170;BME280;52474;52.236;5.114;2023-08-20T04:37:59;102234.03;;;14.77;100.00
59170;BME280;52474;52.236;5.114;2023-08-20T04:40:26;102211.97;;;14.64;100.00
59170;BME280;52474;52.236;5.114;2023-08-20T04:42:52;102233.88;;;14.78;100.00
59170;BME280;52474;52.236;5.114;2023-08-20T04:45:18;102195.13;;;14.63;100.00
59170;BME280;52474;52.236;5.114;2023-08-20T04:47:46;102217.78;;;14.69;100.00
59170;BME280;52474;52.236;5.114;2023-08-20T04:50:12;102227.72;;;14.67;100.00
59170;BME280;52474;52.236;5.114;2023-08-20T04:52:39;102204.34;;;14.48;100.00
59170;BME280;52474;52.236;5.114;2023-08-20T04:55:06;102227.25;;;14.62;100.00
59170;BME280;52474;52.236;5.114;2023-08-20T04:57:33;102238.25;;;14.68;100.00
59170;BME280;52474;52.236;5.114;2023-08-20T05:00:00;102251.72;;;14.78;100.00
59170;BME280;52474;52.236;5.114;2023-08-20T05:02:41;102235.22;;;14.73;100.00
59170;BME280;52474;52.236;5.114;2023-08-20T05:05:11;102232.69;;;14.71;100.00
59170;BME280;52474;52.236;5.114;2023-08-20T05:07:38;102260.41;;;14.91;100.00
59170;BME280;52474;52.236;5.114;2023-08-20T05:10:04;102255.78;;;14.93;100.00
59170;BME280;52474;52.236;5.114;2023-08-20T05:12:30;102253.00;;;14.95;100.00
59170;BME280;52474;52.236;5.114;2023-08-20T05:14:56;102254.31;;;15.00;100.00
59170;BME280;52474;52.236;5.114;2023-08-20T05:17:21;102257.81;;;15.01;100.00
59170;BME280;52474;52.236;5.114;2023-08-20T05:19:47;102244.47;;;15.01;100.00
59170;BME280;52474;52.236;5.114;2023-08-20T05:22:13;102240.34;;;15.08;100.00
59170;BME280;52474;52.236;5.114;2023-08-20T05:24:38;102217.13;;;14.99;100.00
59170;BME280;52474;52.236;5.114;2023-08-20T05:27:11;102246.50;;;15.20;100.00
59170;BME280;52474;52.236;5.114;2023-08-20T05:29:40;102240.53;;;15.28;100.00
59170;BME280;52474;52.236;5.114;2023-08-20T05:32:07;102241.50;;;15.27;100.00
59170;BME280;52474;52.236;5.114;2023-08-20T05:34:32;102221.63;;;15.19;100.00
59170;BME280;52474;52.236;5.114;2023-08-20T05:36:59;102249.81;;;15.33;100.00
59170;BME280;52474;52.236;5.114;2023-08-20T05:39:25;102225.22;;;15.30;100.00
59170;BME280;52474;52.236;5.114;2023-08-20T05:41:52;102245.75;;;15.50;100.00
59170;BME280;52474;52.236;5.114;2023-08-20T05:44:19;102232.75;;;15.57;100.00
59170;BME280;52474;52.236;5.114;2023-08-20T05:46:44;102236.09;;;15.70;100.00
59170;BME280;52474;52.236;5.114;2023-08-20T05:49:15;102240.13;;;15.85;100.00
59170;BME280;52474;52.236;5.114;2023-08-20T05:51:44;102232.69;;;15.89;100.00
59170;BME280;52474;52.236;5.114;2023-08-20T05:54:11;102251.94;;;16.14;100.00
59170;BME280;52474;52.236;5.114;2023-08-20T05:56:37;102228.06;;;16.12;100.00
59170;BME280;52474;52.236;5.114;2023-08-20T05:59:03;102217.97;;;16.25;100.00
59170;BME280;52474;52.236;5.114;2023-08-20T06:01:29;102243.25;;;16.52;100.00
59170;BME280;52474;52.236;5.114;2023-08-20T06:03:55;102248.91;;;16.68;100.00
59170;BME280;52474;52.236;5.114;2023-08-20T06:06:21;102248.09;;;16.78;100.00
59170;BME280;52474;52.236;5.114;2023-08-20T06:08:47;102224.19;;;16.76;100.00
59170;BME280;52474;52.236;5.114;2023-08-20T06:11:12;102241.56;;;17.01;100.00
59170;BME280;52474;52.236;5.114;2023-08-20T06:13:38;102231.72;;;17.11;100.00
59170;BME280;52474;52.236;5.114;2023-08-20T06:16:04;102243.97;;;17.33;100.00
59170;BME280;52474;52.236;5.114;2023-08-20T06:18:30;102257.91;;;17.47;100.00
59170;BME280;52474;52.236;5.114;2023-08-20T06:20:55;102250.31;;;17.52;100.00
59170;BME280;52474;52.236;5.114;2023-08-20T06:23:21;102253.81;;;17.62;100.00
59170;BME280;52474;52.236;5.114;2023-08-20T06:25:47;102237.31;;;17.67;100.00
59170;BME280;52474;52.236;5.114;2023-08-20T06:28:12;102252.84;;;17.83;100.00
59170;BME280;52474;52.236;5.114;2023-08-20T06:30:38;102242.25;;;17.81;100.00
59170;BME280;52474;52.236;5.114;2023-08-20T06:33:04;102259.84;;;18.03;100.00
59170;BME280;52474;52.236;5.114;2023-08-20T06:35:30;102261.25;;;18.07;100.00
59170;BME280;52474;52.236;5.114;2023-08-20T06:37:55;102267.41;;;18.17;100.00
59170;BME280;52474;52.236;5.114;2023-08-20T06:40:21;102258.94;;;18.22;100.00
59170;BME280;52474;52.236;5.114;2023-08-20T06:42:46;102225.97;;;18.12;100.00
59170;BME280;52474;52.236;5.114;2023-08-20T06:45:12;102255.31;;;18.41;100.00
59170;BME280;52474;52.236;5.114;2023-08-20T06:47:37;102255.56;;;18.48;100.00
59170;BME280;52474;52.236;5.114;2023-08-20T06:50:04;102237.41;;;18.41;100.00
59170;BME280;52474;52.236;5.114;2023-08-20T06:52:30;102188.50;;;18.20;100.00
59170;BME280;52474;52.236;5.114;2023-08-20T06:54:55;102252.94;;;18.65;100.00
59170;BME280;52474;52.236;5.114;2023-08-20T06:57:21;102254.50;;;18.68;100.00
59170;BME280;52474;52.236;5.114;2023-08-20T06:59:47;102228.75;;;18.48;100.00
59170;BME280;52474;52.236;5.114;2023-08-20T07:02:12;102249.66;;;18.72;100.00
59170;BME280;52474;52.236;5.114;2023-08-20T07:04:38;102257.13;;;18.78;100.00
59170;BME280;52474;52.236;5.114;2023-08-20T07:07:03;102244.56;;;18.78;100.00
59170;BME280;52474;52.236;5.114;2023-08-20T07:09:33;102240.44;;;18.84;100.00
59170;BME280;52474;52.236;5.114;2023-08-20T07:11:59;102248.56;;;18.92;100.00
59170;BME280;52474;52.236;5.114;2023-08-20T07:14:25;102265.94;;;19.16;100.00
59170;BME280;52474;52.236;5.114;2023-08-20T07:16:50;102269.84;;;19.39;100.00
59170;BME280;52474;52.236;5.114;2023-08-20T07:19:16;102274.81;;;23.09;100.00
59170;BME280;52474;52.236;5.114;2023-08-20T07:21:42;102244.41;;;28.03;100.00
59170;BME280;52474;52.236;5.114;2023-08-20T07:24:07;102255.56;;;30.17;100.00
59170;BME280;52474;52.236;5.114;2023-08-20T07:26:33;102247.66;;;31.72;100.00
59170;BME280;52474;52.236;5.114;2023-08-20T07:28:58;102263.47;;;32.69;100.00
59170;BME280;52474;52.236;5.114;2023-08-20T07:31:29;102272.00;;;29.92;100.00
59170;BME280;52474;52.236;5.114;2023-08-20T07:33:56;102258.84;;;32.06;100.00
59170;BME280;52474;52.236;5.114;2023-08-20T07:36:24;102268.84;;;32.64;100.00
59170;BME280;52474;52.236;5.114;2023-08-20T07:38:51;102270.19;;;33.92;100.00
59170;BME280;52474;52.236;5.114;2023-08-20T07:41:18;102250.09;;;34.57;100.00
59170;BME280;52474;52.236;5.114;2023-08-20T07:43:46;102274.72;;;35.98;100.00
59170;BME280;52474;52.236;5.114;2023-08-20T07:46:12;102269.03;;;36.20;100.00
59170;BME280;52474;52.236;5.114;2023-08-20T07:48:38;102276.66;;;36.03;100.00
59170;BME280;52474;52.236;5.114;2023-08-20T07:51:04;102273.50;;;36.31;100.00
59170;BME280;52474;52.236;5.114;2023-08-20T07:53:31;102261.25;;;37.01;100.00
59170;BME280;52474;52.236;5.114;2023-08-20T07:55:57;102262.63;;;37.03;100.00
59170;BME280;52474;52.236;5.114;2023-08-20T07:58:22;102278.09;;;37.50;100.00
59170;BME280;52474;52.236;5.114;2023-08-20T08:00:48;102274.75;;;36.77;100.00
59170;BME280;52474;52.236;5.114;2023-08-20T08:03:14;102282.13;;;35.50;100.00
59170;BME280;52474;52.236;5.114;2023-08-20T08:05:49;102280.56;;;34.73;100.00
59170;BME280;52474;52.236;5.114;2023-08-20T08:08:18;102286.91;;;36.81;100.00
59170;BME280;52474;52.236;5.114;2023-08-20T08:10:44;102293.31;;;37.48;100.00
59170;BME280;52474;52.236;5.114;2023-08-20T08:13:15;102295.19;;;36.75;100.00
59170;BME280;52474;52.236;5.114;2023-08-20T08:15:41;102296.66;;;37.29;100.00
59170;BME280;52474;52.236;5.114;2023-08-20T08:18:07;102288.91;;;37.26;100.00
59170;BME280;52474;52.236;5.114;2023-08-20T08:20:33;102284.69;;;37.85;100.00
59170;BME280;52474;52.236;5.114;2023-08-20T08:22:59;102287.72;;;38.04;100.00
59170;BME280;52474;52.236;5.114;2023-08-20T08:25:25;102282.28;;;38.93;100.00
59170;BME280;52474;52.236;5.114;2023-08-20T08:27:51;102290.94;;;38.27;100.00
59170;BME280;52474;52.236;5.114;2023-08-20T08:30:17;102284.22;;;38.87;100.00
59170;BME280;52474;52.236;5.114;2023-08-20T08:32:43;102287.41;;;39.10;100.00
59170;BME280;52474;52.236;5.114;2023-08-20T08:35:08;102294.22;;;39.23;100.00
59170;BME280;52474;52.236;5.114;2023-08-20T08:37:34;102290.50;;;39.38;100.00
59170;BME280;52474;52.236;5.114;2023-08-20T08:40:00;102294.53;;;38.22;100.00
59170;BME280;52474;52.236;5.114;2023-08-20T08:42:26;102285.63;;;38.85;100.00
59170;BME280;52474;52.236;5.114;2023-08-20T08:44:52;102293.91;;;38.40;100.00
59170;BME280;52474;52.236;5.114;2023-08-20T08:47:22;102289.81;;;39.22;100.00
59170;BME280;52474;52.236;5.114;2023-08-20T08:49:48;102279.41;;;39.38;100.00
59170;BME280;52474;52.236;5.114;2023-08-20T08:52:14;102298.31;;;40.13;96.14
59170;BME280;52474;52.236;5.114;2023-08-20T08:54:41;102301.53;;;39.43;96.79
59170;BME280;52474;52.236;5.114;2023-08-20T08:57:07;102288.31;;;39.35;100.00
59170;BME280;52474;52.236;5.114;2023-08-20T08:59:33;102282.19;;;37.89;100.00
59170;BME280;52474;52.236;5.114;2023-08-20T09:01:58;102288.00;;;36.74;100.00
59170;BME280;52474;52.236;5.114;2023-08-20T09:04:25;102292.34;;;38.19;100.00
59170;BME280;52474;52.236;5.114;2023-08-20T09:06:52;102273.63;;;38.00;100.00
59170;BME280;52474;52.236;5.114;2023-08-20T09:09:19;102289.91;;;39.12;99.06
59170;BME280;52474;52.236;5.114;2023-08-20T09:11:49;102283.81;;;39.44;96.73
59170;BME280;52474;52.236;5.114;2023-08-20T09:14:23;102293.97;;;38.80;99.39
59170;BME280;52474;52.236;5.114;2023-08-20T09:16:59;102277.03;;;38.37;96.33
59170;BME280;52474;52.236;5.114;2023-08-20T09:19:35;102293.69;;;39.21;93.71
59170;BME280;52474;52.236;5.114;2023-08-20T09:22:01;102305.97;;;39.73;94.16
59170;BME280;52474;52.236;5.114;2023-08-20T09:24:45;102302.88;;;39.75;86.59
59170;BME280;52474;52.236;5.114;2023-08-20T09:27:12;102300.19;;;40.42;89.53
59170;BME280;52474;52.236;5.114;2023-08-20T09:29:54;102294.00;;;39.78;89.00
59170;BME280;52474;52.236;5.114;2023-08-20T09:32:22;102309.34;;;40.42;90.91
59170;BME280;52474;52.236;5.114;2023-08-20T09:34:49;102305.97;;;40.45;82.57
59170;BME280;52474;52.236;5.114;2023-08-20T09:37:17;102304.75;;;39.21;93.97
59170;BME280;52474;52.236;5.114;2023-08-20T09:39:43;102305.44;;;37.83;93.91
59170;BME280;52474;52.236;5.114;2023-08-20T09:42:10;102301.22;;;39.49;93.23
59170;BME280;52474;52.236;5.114;2023-08-20T09:44:38;102294.94;;;39.92;85.97
59170;BME280;52474;52.236;5.114;2023-08-20T09:47:09;102300.50;;;40.16;81.80
59170;BME280;52474;52.236;5.114;2023-08-20T09:49:40;102291.50;;;38.23;89.31
59170;BME280;52474;52.236;5.114;2023-08-20T09:52:11;102301.38;;;39.63;88.00
59170;BME280;52474;52.236;5.114;2023-08-20T09:57:36;102300.38;;;39.78;84.80
59170;BME280;52474;52.236;5.114;2023-08-20T10:00:03;102298.59;;;39.87;83.46
59170;BME280;52474;52.236;5.114;2023-08-20T10:02:40;102306.31;;;40.39;81.92
59170;BME280;52474;52.236;5.114;2023-08-20T10:05:06;102302.63;;;39.13;82.77
59170;BME280;52474;52.236;5.114;2023-08-20T10:07:34;102305.16;;;40.21;83.23
59170;BME280;52474;52.236;5.114;2023-08-20T10:10:05;102315.94;;;39.74;84.83
59170;BME280;52474;52.236;5.114;2023-08-20T10:12:32;102315.16;;;39.98;84.19
59170;BME280;52474;52.236;5.114;2023-08-20T10:14:59;102306.38;;;38.93;87.02
59170;BME280;52474;52.236;5.114;2023-08-20T10:17:27;102312.50;;;38.84;88.54
59170;BME280;52474;52.236;5.114;2023-08-20T10:19:54;102298.63;;;38.90;85.45
59170;BME280;52474;52.236;5.114;2023-08-20T10:22:22;102297.13;;;36.70;95.48
59170;BME280;52474;52.236;5.114;2023-08-20T10:24:49;102300.53;;;37.59;100.00
59170;BME280;52474;52.236;5.114;2023-08-20T10:27:27;102276.50;;;38.40;93.63
59170;BME280;52474;52.236;5.114;2023-08-20T10:29:58;102285.16;;;39.46;88.15
59170;BME280;52474;52.236;5.114;2023-08-20T10:32:47;102307.25;;;39.22;88.75
59170;BME280;52474;52.236;5.114;2023-08-20T10:35:15;102297.22;;;39.90;80.30
59170;BME280;52474;52.236;5.114;2023-08-20T10:38:04;102298.31;;;39.30;86.90
59170;BME280;52474;52.236;5.114;2023-08-20T10:40:52;102299.94;;;39.66;80.69
59170;BME280;52474;52.236;5.114;2023-08-20T10:46:13;102300.41;;;39.49;85.10
59170;BME280;52474;52.236;5.114;2023-08-20T10:48:48;102270.69;;;38.36;85.82
59170;BME280;52474;52.236;5.114;2023-08-20T10:51:28;102292.44;;;37.83;100.00
59170;BME280;52474;52.236;5.114;2023-08-20T10:56:45;102288.41;;;38.90;85.86
59170;BME280;52474;52.236;5.114;2023-08-20T10:59:17;102278.41;;;37.08;89.46
59170;BME280;52474;52.236;5.114;2023-08-20T11:01:44;102269.25;;;38.88;92.59
59170;BME280;52474;52.236;5.114;2023-08-20T11:04:11;102286.72;;;38.44;85.52
59170;BME280;52474;52.236;5.114;2023-08-20T11:06:38;102278.25;;;38.70;94.20
59170;BME280;52474;52.236;5.114;2023-08-20T11:09:04;102269.06;;;38.80;84.60
59170;BME280;52474;52.236;5.114;2023-08-20T11:11:31;102288.13;;;38.32;92.42
59170;BME280;52474;52.236;5.114;2023-08-20T11:14:03;102271.94;;;36.56;97.25
59170;BME280;52474;52.236;5.114;2023-08-20T11:16:29;102273.78;;;32.39;100.00
59170;BME280;52474;52.236;5.114;2023-08-20T11:18:56;102292.69;;;34.72;100.00
59170;BME280;52474;52.236;5.114;2023-08-20T11:21:23;102297.09;;;34.29;100.00
59170;BME280;52474;52.236;5.114;2023-08-20T11:23:48;102302.06;;;31.92;100.00
59170;BME280;52474;52.236;5.114;2023-08-20T11:26:14;102296.13;;;32.71;100.00
59170;BME280;52474;52.236;5.114;2023-08-20T11:28:45;102287.38;;;35.94;100.00
59170;BME280;52474;52.236;5.114;2023-08-20T11:31:11;102289.44;;;36.87;99.28
59170;BME280;52474;52.236;5.114;2023-08-20T11:33:37;102280.38;;;33.74;100.00
59170;BME280;52474;52.236;5.114;2023-08-20T11:36:05;102292.47;;;31.24;100.00
59170;BME280;52474;52.236;5.114;2023-08-20T11:38:31;102284.94;;;30.59;100.00
59170;BME280;52474;52.236;5.114;2023-08-20T11:40:58;102270.84;;;30.92;100.00
59170;BME280;52474;52.236;5.114;2023-08-20T11:43:27;102287.31;;;33.99;100.00
59170;BME280;52474;52.236;5.114;2023-08-20T11:45:53;102274.84;;;35.06;100.00
59170;BME280;52474;52.236;5.114;2023-08-20T11:48:20;102284.53;;;32.52;100.00
59170;BME280;52474;52.236;5.114;2023-08-20T11:50:50;102275.91;;;32.89;100.00
59170;BME280;52474;52.236;5.114;2023-08-20T11:53:21;102272.06;;;32.90;100.00
59170;BME280;52474;52.236;5.114;2023-08-20T11:55:48;102277.41;;;32.68;100.00
59170;BME280;52474;52.236;5.114;2023-08-20T11:58:14;102244.47;;;31.63;100.00
59170;BME280;52474;52.236;5.114;2023-08-20T12:00:40;102253.72;;;34.85;100.00
59170;BME280;52474;52.236;5.114;2023-08-20T12:03:07;102260.59;;;36.52;100.00
59170;BME280;52474;52.236;5.114;2023-08-20T12:05:33;102264.50;;;35.19;100.00
59170;BME280;52474;52.236;5.114;2023-08-20T12:08:00;102264.84;;;36.86;100.00
59170;BME280;52474;52.236;5.114;2023-08-20T12:10:29;102244.53;;;36.24;100.00
59170;BME280;52474;52.236;5.114;2023-08-20T12:12:55;102269.41;;;35.49;100.00
59170;BME280;52474;52.236;5.114;2023-08-20T12:15:23;102278.16;;;35.73;100.00
59170;BME280;52474;52.236;5.114;2023-08-20T12:18:00;102280.75;;;35.15;100.00
59170;BME280;52474;52.236;5.114;2023-08-20T12:20:28;102285.78;;;33.52;100.00
59170;BME280;52474;52.236;5.114;2023-08-20T12:22:54;102285.38;;;32.81;100.00
59170;BME280;52474;52.236;5.114;2023-08-20T12:25:20;102291.34;;;30.34;100.00
59170;BME280;52474;52.236;5.114;2023-08-20T12:27:45;102293.34;;;29.84;100.00
59170;BME280;52474;52.236;5.114;2023-08-20T12:30:11;102295.38;;;29.38;100.00
59170;BME280;52474;52.236;5.114;2023-08-20T12:32:37;102283.78;;;29.18;100.00
59170;BME280;52474;52.236;5.114;2023-08-20T12:35:03;102304.16;;;29.02;100.00
59170;BME280;52474;52.236;5.114;2023-08-20T12:37:29;102299.31;;;29.17;100.00
59170;BME280;52474;52.236;5.114;2023-08-20T12:39:54;102286.63;;;30.23;100.00
59170;BME280;52474;52.236;5.114;2023-08-20T12:42:20;102284.94;;;30.22;100.00
59170;BME280;52474;52.236;5.114;2023-08-20T12:44:46;102295.88;;;31.50;100.00
59170;BME280;52474;52.236;5.114;2023-08-20T12:47:11;102288.16;;;32.17;100.00
59170;BME280;52474;52.236;5.114;2023-08-20T12:49:37;102304.50;;;32.12;100.00
59170;BME280;52474;52.236;5.114;2023-08-20T12:52:03;102269.00;;;32.05;100.00
59170;BME280;52474;52.236;5.114;2023-08-20T12:54:28;102295.31;;;32.59;100.00
59170;BME280;52474;52.236;5.114;2023-08-20T12:56:54;102291.63;;;32.93;100.00
59170;BME280;52474;52.236;5.114;2023-08-20T12:59:20;102290.94;;;32.86;100.00